Time;durP1;ratioP1;P1;durP2;ratioP2;P2;SDS_P1;SDS_P2;PMS_P1;PMS_P2;Temp;Humidity;BMP_temperature;BMP_pressure;BME280_temperature;BME280_humidity;BME280_pressure;Samples;Min_cycle;Max_cycle;Signal;HPM_P1;HPM_P2
2022/07/10 00:00:11;;;;;;;3.42;3.12;;;;;;;14.08;100.00;98853.55;1817912;78;20941;-70
2022/07/10 00:02:42;;;;;;;3.95;3.58;;;;;;;14.09;100.00;98851.92;1793384;78;20879;-71
2022/07/10 00:05:11;;;;;;;3.87;3.47;;;;;;;14.10;100.00;98843.27;1793729;78;21778;-71
2022/07/10 00:07:38;;;;;;;3.45;3.15;;;;;;;14.12;100.00;98837.03;1811964;78;21543;-71
2022/07/10 00:10:07;;;;;;;3.80;3.50;;;;;;;14.12;100.00;98838.38;1813632;78;21508;-70
2022/07/10 00:12:35;;;;;;;9.98;5.10;;;;;;;14.13;100.00;98839.45;1803181;78;20899;-71
2022/07/10 00:15:08;;;;;;;25.70;6.85;;;;;;;14.15;100.00;98837.23;1805917;78;20895;-71
2022/07/10 00:17:36;;;;;;;6.55;5.10;;;;;;;14.14;100.00;98837.55;1775042;78;21124;-70
2022/07/10 00:20:06;;;;;;;12.37;4.00;;;;;;;14.13;100.00;98838.62;1808165;78;20966;-70
2022/07/10 00:22:36;;;;;;;5.90;5.00;;;;;;;14.13;100.00;98841.32;1786208;78;21005;-71
2022/07/10 00:25:07;;;;;;;6.85;4.25;;;;;;;14.13;100.00;98841.32;1794320;78;20935;-71
2022/07/10 00:27:33;;;;;;;16.07;11.30;;;;;;;14.13;100.00;98841.32;1814192;77;20961;-70
2022/07/10 00:30:01;;;;;;;33.25;21.37;;;;;;;14.12;100.00;98834.34;1764474;79;21378;-71
2022/07/10 00:32:28;;;;;;;66.15;45.88;;;;;;;14.10;100.00;98839.22;1813941;78;20910;-71
2022/07/10 00:34:55;;;;;;;101.22;77.27;;;;;;;14.09;100.00;98843.03;1801287;78;20972;-71
2022/07/10 00:37:22;;;;;;;76.82;68.52;;;;;;;14.06;100.00;98843.59;1792773;78;20827;-70
2022/07/10 00:39:49;;;;;;;35.63;32.30;;;;;;;14.06;100.00;98844.94;1793841;78;20938;-70
2022/07/10 00:42:17;;;;;;;25.90;23.27;;;;;;;14.05;100.00;98842.00;1810330;78;21873;-71
2022/07/10 00:44:44;;;;;;;10.10;9.28;;;;;;;14.02;100.00;98836.64;1812831;78;21543;-70
2022/07/10 00:47:11;;;;;;;13.08;12.07;;;;;;;13.99;100.00;98836.41;1798097;78;20887;-71
2022/07/10 00:49:39;;;;;;;8.13;7.08;;;;;;;13.93;100.00;98832.45;1781333;78;20898;-71
2022/07/10 00:52:12;;;;;;;4.85;4.55;;;;;;;13.89;100.00;98832.80;1811769;78;20870;-71
2022/07/10 00:54:41;;;;;;;11.53;10.65;;;;;;;13.85;100.00;98830.42;1799451;78;21081;-70
2022/07/10 00:57:08;;;;;;;7.33;6.72;;;;;;;13.82;100.00;98826.17;1807374;78;20882;-71
2022/07/10 00:59:35;;;;;;;6.55;6.05;;;;;;;13.78;100.00;98824.59;1779346;78;21012;-71
2022/07/10 01:02:04;;;;;;;10.08;9.25;;;;;;;13.76;100.00;98824.63;1813391;78;20969;-70
2022/07/10 01:04:31;;;;;;;26.45;9.60;;;;;;;13.71;100.00;98820.11;1784645;78;20897;-70
2022/07/10 01:06:59;;;;;;;5.85;4.30;;;;;;;13.66;100.00;98818.28;1794689;78;21275;-70
2022/07/10 01:09:28;;;;;;;5.10;4.70;;;;;;;13.61;100.00;98811.63;1800135;78;20918;-71
2022/07/10 01:12:00;;;;;;;3.65;3.35;;;;;;;13.58;100.00;98811.41;1788283;78;20962;-71
2022/07/10 01:14:29;;;;;;;4.72;4.37;;;;;;;13.58;100.00;98806.02;1813103;78;21146;-71
2022/07/10 01:16:58;;;;;;;4.78;4.37;;;;;;;13.58;100.00;98801.42;1795018;78;21570;-70
2022/07/10 01:19:26;;;;;;;4.28;3.98;;;;;;;13.62;100.00;98804.33;1807598;78;21224;-69
2022/07/10 01:21:54;;;;;;;7.28;6.60;;;;;;;13.63;100.00;98797.86;1799690;78;20973;-70
2022/07/10 01:24:21;;;;;;;4.25;3.87;;;;;;;13.61;100.00;98788.70;1794903;78;20913;-71
2022/07/10 01:26:48;;;;;;;3.10;2.90;;;;;;;13.60;100.00;98789.80;1797625;78;21516;-70
2022/07/10 01:29:17;;;;;;;3.58;3.37;;;;;;;13.61;100.00;98791.95;1787136;78;21500;-70
2022/07/10 01:31:45;;;;;;;5.00;4.00;;;;;;;13.61;100.00;98779.81;1799661;78;21890;-71
2022/07/10 01:34:11;;;;;;;3.25;3.05;;;;;;;13.62;100.00;98780.88;1815900;78;21107;-71
2022/07/10 01:36:38;;;;;;;6.80;4.05;;;;;;;13.64;100.00;98769.78;1801585;78;21521;-71
2022/07/10 01:39:06;;;;;;;3.83;3.15;;;;;;;13.63;100.00;98778.98;1811964;78;20982;-70
2022/07/10 01:41:34;;;;;;;8.85;6.35;;;;;;;13.59;100.00;98774.70;1810657;78;21428;-71
2022/07/10 01:44:01;;;;;;;13.30;11.55;;;;;;;13.58;100.00;98777.16;1806931;78;21244;-70
2022/07/10 01:46:28;;;;;;;16.37;12.37;;;;;;;13.57;100.00;98778.79;1772029;78;20871;-71
2022/07/10 01:48:55;;;;;;;8.60;5.90;;;;;;;13.53;100.00;98779.14;1797918;78;20878;-70
2022/07/10 01:51:22;;;;;;;13.78;9.75;;;;;;;13.45;100.00;98779.25;1806927;78;20838;-71
2022/07/10 01:53:49;;;;;;;4.20;3.80;;;;;;;13.37;100.00;98769.90;1814322;78;20863;-72
2022/07/10 01:56:16;;;;;;;5.08;4.00;;;;;;;13.32;100.00;98759.19;1804193;78;21304;-71
2022/07/10 02:26:11;;;;;;;7.97;5.47;;;;;;;12.08;100.00;98733.94;1866551;75;24413;-71
2022/07/10 02:28:38;;;;;;;22.67;6.35;;;;;;;12.06;100.00;98734.79;1858378;77;20858;-71
2022/07/10 02:31:05;;;;;;;13.32;10.00;;;;;;;12.07;100.00;98728.31;1861156;77;21161;-70
2022/07/10 02:33:32;;;;;;;11.25;8.58;;;;;;;12.07;100.00;98729.66;1851579;77;20906;-70
2022/07/10 02:35:59;;;;;;;7.90;6.53;;;;;;;12.14;100.00;98726.09;1840947;76;20902;-70
2022/07/10 02:38:26;;;;;;;5.70;4.92;;;;;;;12.18;100.00;98733.31;1843433;76;20922;-70
2022/07/10 02:40:53;;;;;;;15.53;7.92;;;;;;;12.22;100.00;98733.53;1792163;77;21161;-70
2022/07/10 02:43:20;;;;;;;7.37;4.55;;;;;;;12.26;100.00;98733.78;1856612;77;21598;-70
2022/07/10 02:45:47;;;;;;;7.22;5.17;;;;;;;12.36;100.00;98736.37;1822199;76;20910;-70
2022/07/10 02:48:16;;;;;;;4.42;4.03;;;;;;;12.52;100.00;98737.81;1830270;76;20909;-70
2022/07/10 02:50:42;;;;;;;7.53;4.03;;;;;;;12.71;100.00;98737.05;1830439;76;21420;-70
2022/07/10 02:53:09;;;;;;;11.08;5.20;;;;;;;12.89;100.00;98729.58;1830392;76;20918;-71
2022/07/10 02:55:36;;;;;;;94.58;57.03;;;;;;;13.13;100.00;98736.79;1824846;76;21243;-71
2022/07/10 02:58:03;;;;;;;23.50;18.65;;;;;;;13.38;100.00;98733.78;1852280;77;20890;-71
2022/07/10 03:00:30;;;;;;;27.13;24.73;;;;;;;13.64;100.00;98738.23;1833844;76;20958;-70
2022/07/10 03:02:57;;;;;;;19.65;17.85;;;;;;;13.90;100.00;98735.13;1842221;76;20827;-71
2022/07/10 03:05:24;;;;;;;7.30;6.70;;;;;;;14.12;100.00;98733.14;1835879;76;20902;-67
2022/07/10 03:07:51;;;;;;;8.53;4.90;;;;;;;14.33;100.00;98728.98;1854395;76;21317;-71
2022/07/10 03:10:20;;;;;;;;;;;;;;;14.55;100.00;98725.63;1841091;76;20973;-71
2022/07/10 03:12:47;;;;;;;4.97;4.47;;;;;;;14.71;100.00;98727.46;1853297;76;20111;-72
2022/07/10 03:15:15;;;;;;;9.88;6.17;;;;;;;14.87;100.00;98728.48;1837111;76;20981;-71
2022/07/10 03:17:42;;;;;;;14.70;4.35;;;;;;;14.99;100.00;98729.59;1840248;76;21344;-71
2022/07/10 03:20:10;;;;;;;8.28;4.45;;;;;;;15.10;100.00;98726.11;1829277;76;21249;-72
2022/07/10 03:22:37;;;;;;;6.35;3.67;;;;;;;15.28;100.00;98727.63;1857394;77;21384;-71
2022/07/10 03:25:06;;;;;;;4.25;2.80;;;;;;;15.41;100.00;98729.50;1829303;76;21451;-71
2022/07/10 03:27:32;;;;;;;4.08;2.60;;;;;;;15.55;100.00;98729.44;1827767;76;20886;-72
2022/07/10 03:29:59;;;;;;;6.05;3.47;;;;;;;15.78;100.00;98736.49;1827274;76;20899;-72
2022/07/10 03:32:27;;;;;;;5.42;3.12;;;;;;;16.10;100.00;98734.63;1832500;77;21187;-70
2022/07/10 03:34:54;;;;;;;3.75;3.27;;;;;;;16.53;100.00;98742.14;1815319;76;20962;-71
2022/07/10 03:37:21;;;;;;;5.25;4.30;;;;;;;16.72;100.00;98748.67;1839683;76;21012;-71
2022/07/10 03:39:48;;;;;;;7.60;5.00;;;;;;;16.91;100.00;98750.59;1837791;76;20919;-71
2022/07/10 03:42:14;;;;;;;5.85;3.70;;;;;;;17.04;100.00;98756.20;1830004;76;21422;-70
2022/07/10 03:44:41;;;;;;;7.58;5.33;;;;;;;17.25;100.00;98748.28;1851530;76;21159;-72
2022/07/10 03:47:08;;;;;;;5.42;2.30;;;;;;;17.55;100.00;98759.53;1836968;76;20894;-70
2022/07/10 03:49:35;;;;;;;8.23;2.83;;;;;;;17.44;100.00;98752.02;1851629;77;20875;-71
2022/07/10 03:52:04;;;;;;;4.83;3.05;;;;;;;17.40;100.00;98753.80;1862479;77;21494;-72
2022/07/10 03:54:30;;;;;;;;;;;;;;;17.39;100.00;98756.25;1858104;76;21537;-73
2022/07/10 03:59:43;;;;;;;3.35;2.30;;;;;;;17.48;100.00;98758.41;1856376;76;20866;-70
2022/07/10 04:02:11;;;;;;;7.62;3.10;;;;;;;17.56;100.00;98758.97;1829890;76;20938;-71
2022/07/10 04:04:38;;;;;;;8.55;3.02;;;;;;;17.66;100.00;98775.48;1828113;76;21333;-72
2022/07/10 04:07:05;;;;;;;4.25;2.77;;;;;;;17.63;100.00;98774.78;1799353;77;21590;-72
2022/07/10 04:09:32;;;;;;;5.00;3.52;;;;;;;17.77;100.00;98776.20;1860471;77;21139;-72
2022/07/10 04:11:59;;;;;;;4.87;3.03;;;;;;;17.85;100.00;98772.48;1837252;76;20962;-72
2022/07/10 04:14:26;;;;;;;5.08;2.90;;;;;;;17.63;100.00;98772.06;1828351;76;20891;-72
2022/07/10 04:16:53;;;;;;;6.53;3.57;;;;;;;17.62;100.00;98771.27;1846321;77;21423;-72
2022/07/10 04:19:21;;;;;;;4.70;3.35;;;;;;;17.89;100.00;98768.02;1842865;76;21235;-71
2022/07/10 04:21:49;;;;;;;6.25;3.20;;;;;;;18.05;100.00;98773.17;1838320;76;25636;-73
2022/07/10 04:24:15;;;;;;;7.87;3.30;;;;;;;18.32;100.00;98770.62;1818784;76;21364;-73
2022/07/10 04:26:44;;;;;;;4.33;3.05;;;;;;;18.32;100.00;98770.62;1840255;76;22094;-71
2022/07/10 04:29:10;;;;;;;;;;;;;;;18.55;100.00;98781.28;1836843;76;20992;-72
2022/07/10 04:31:38;;;;;;;8.80;4.90;;;;;;;18.77;100.00;98781.63;1839278;76;20549;-72
2022/07/10 04:34:04;;;;;;;2.40;2.20;;;;;;;18.95;100.00;98780.41;1820762;77;20968;-74
2022/07/10 04:36:31;;;;;;;7.45;2.65;;;;;;;19.23;100.00;98785.36;1829685;76;20969;-73
2022/07/10 04:38:58;;;;;;;4.60;3.47;;;;;;;19.42;100.00;98783.56;1842144;76;20894;-73
2022/07/10 04:41:25;;;;;;;13.33;9.93;;;;;;;19.47;100.00;98784.73;1844564;76;20925;-72
2022/07/10 04:43:52;;;;;;;6.60;5.90;;;;;;;19.46;100.00;98786.66;1831954;77;20901;-73
2022/07/10 04:46:19;;;;;;;5.03;3.42;;;;;;;19.56;100.00;98790.91;1820403;77;21210;-69
2022/07/10 04:48:46;;;;;;;4.58;2.75;;;;;;;19.39;100.00;98795.91;1844110;76;20818;-68
2022/07/10 04:51:13;;;;;;;6.10;2.90;;;;;;;19.53;100.00;98794.88;1821559;76;21526;-68
2022/07/10 04:53:40;;;;;;;9.40;2.27;;;;;;;19.30;100.00;98806.61;1814950;77;20875;-71
2022/07/10 04:56:08;;;;;;;3.87;2.40;;;;;;;19.05;100.00;98803.14;1847236;76;20845;-70
2022/07/10 04:58:35;;;;;;;5.87;2.35;;;;;;;18.95;100.00;98795.36;1860240;77;21381;-72
2022/07/10 05:01:04;;;;;;;3.45;2.20;;;;;;;18.89;100.00;98804.84;1822128;76;21013;-70
2022/07/10 05:03:30;;;;;;;4.70;2.22;;;;;;;19.02;100.00;98801.09;1845816;77;21538;-72
2022/07/10 05:05:57;;;;;;;4.53;2.50;;;;;;;19.27;100.00;98799.34;1859692;76;20996;-68
2022/07/10 05:08:24;;;;;;;5.10;2.27;;;;;;;19.46;100.00;98796.75;1829214;76;20902;-70
2022/07/10 05:10:51;;;;;;;3.45;3.15;;;;;;;19.38;100.00;98803.85;1860823;76;21306;-69
2022/07/10 05:13:18;;;;;;;7.37;2.37;;;;;;;19.44;100.00;98799.00;1843976;76;21388;-71
2022/07/10 05:15:49;;;;;;;3.63;2.67;;;;;;;19.39;100.00;98802.71;1825688;76;21557;-70
2022/07/10 05:18:16;;;;;;;7.70;3.10;;;;;;;19.11;100.00;98794.26;1847839;77;21077;-69
2022/07/10 05:20:44;;;;;;;8.05;2.92;;;;;;;18.72;100.00;98792.66;1841608;76;21094;-70
2022/07/10 05:23:11;;;;;;;4.58;2.83;;;;;;;18.62;100.00;98791.09;1852448;76;21950;-69
2022/07/10 05:25:40;;;;;;;4.65;2.58;;;;;;;18.60;100.00;98788.69;1814926;77;25140;-69
2022/07/10 05:28:07;;;;;;;9.98;3.30;;;;;;;18.45;100.00;98790.59;1836722;76;26497;-69
2022/07/10 05:30:35;;;;;;;;;;;;;;;18.34;100.00;98786.61;1852322;76;20921;-71
2022/07/10 05:33:02;;;;;;;6.60;2.30;;;;;;;18.33;100.00;98782.31;1827536;76;20094;-70
2022/07/10 05:35:29;;;;;;;6.00;2.92;;;;;;;18.34;100.00;98781.19;1848211;77;21039;-70
2022/07/10 05:37:57;;;;;;;11.40;2.87;;;;;;;18.52;100.00;98772.41;1858960;77;20822;-69
2022/07/10 05:40:23;;;;;;;3.52;2.45;;;;;;;18.61;100.00;98771.81;1853882;76;20914;-69
2022/07/10 05:42:51;;;;;;;;;;;;;;;18.56;100.00;98776.87;1854574;77;20953;-70
2022/07/10 05:45:19;;;;;;;3.83;2.90;;;;;;;18.38;100.00;98769.91;1842523;76;20095;-73
2022/07/10 05:47:45;;;;;;;5.57;3.10;;;;;;;18.33;100.00;98764.66;1854164;76;21229;-66
2022/07/10 05:50:12;;;;;;;5.10;2.60;;;;;;;18.31;100.00;98766.89;1837919;77;21018;-69
2022/07/10 05:52:40;;;;;;;5.30;2.90;;;;;;;18.33;100.00;98764.66;1844227;76;20958;-68
2022/07/10 05:55:07;;;;;;;8.20;4.17;;;;;;;18.36;100.00;98764.00;1858736;76;21467;-69
2022/07/10 05:57:36;;;;;;;6.85;3.90;;;;;;;18.42;100.00;98765.41;1842910;76;20874;-69
2022/07/10 06:00:05;;;;;;;11.43;3.20;;;;;;;18.94;100.00;98765.23;1835780;76;21204;-71
2022/07/10 06:02:35;;;;;;;4.28;2.80;;;;;;;18.94;100.00;98765.23;1814029;77;20910;-67
2022/07/10 06:05:02;;;;;;;4.25;2.98;;;;;;;19.60;100.00;98767.89;1821547;76;21006;-69
2022/07/10 06:07:29;;;;;;;7.25;3.00;;;;;;;20.47;100.00;98763.78;1841241;76;20902;-68
2022/07/10 06:09:56;;;;;;;3.98;2.40;;;;;;;20.53;100.00;98766.53;1856660;76;21148;-68
2022/07/10 06:12:23;;;;;;;8.38;3.02;;;;;;;20.12;100.00;98763.38;1837489;76;21212;-68
2022/07/10 06:14:50;;;;;;;3.92;2.45;;;;;;;20.05;100.00;98769.38;1836611;76;20957;-70
2022/07/10 06:17:17;;;;;;;7.60;2.33;;;;;;;19.94;100.00;98762.73;1837823;77;20964;-70
2022/07/10 06:19:45;;;;;;;6.22;2.27;;;;;;;19.94;100.00;98762.73;1822595;76;21431;-69
2022/07/10 06:25:02;;;;;;;4.03;2.12;;;;;;;20.34;100.00;98759.47;1838449;76;21168;-69
2022/07/10 06:27:29;;;;;;;4.53;3.90;;;;;;;20.70;100.00;98757.38;1842345;76;20894;-68
2022/07/10 06:29:57;;;;;;;3.52;2.45;;;;;;;21.36;100.00;98755.48;1814945;76;20875;-71
2022/07/10 06:32:24;;;;;;;3.67;2.35;;;;;;;21.68;100.00;98748.27;1842415;76;20969;-70
2022/07/10 06:34:53;;;;;;;3.87;1.80;;;;;;;21.71;100.00;98747.57;1860404;77;21498;-73
2022/07/10 06:37:20;;;;;;;2.15;1.70;;;;;;;21.92;100.00;98759.64;1836187;76;21977;-71
2022/07/10 06:39:47;;;;;;;4.53;2.02;;;;;;;21.66;100.00;98753.28;1842660;76;21502;-71
2022/07/10 06:42:14;;;;;;;11.45;2.30;;;;;;;21.87;100.00;98748.97;1839236;77;21009;-70
2022/07/10 06:44:42;;;;;;;;;;;;;;;22.51;96.66;98747.73;1866022;77;20921;-68
2022/07/10 06:49:55;;;;;;;3.17;1.63;;;;;;;22.39;83.71;98752.70;1829740;76;21207;-70
2022/07/10 06:52:22;;;;;;;2.43;1.53;;;;;;;22.35;84.42;98753.98;1834594;76;20910;-71
2022/07/10 06:54:51;;;;;;;2.47;1.60;;;;;;;22.16;78.25;98753.27;1823145;77;20974;-72
2022/07/10 06:57:19;;;;;;;5.35;2.22;;;;;;;21.45;88.11;98750.72;1848147;76;20858;-70
2022/07/10 06:59:46;;;;;;;;;;;;;;;21.38;97.18;98753.99;1855033;76;20961;-67
2022/07/10 07:02:13;;;;;;;5.35;1.77;;;;;;;21.38;93.62;98753.99;1814840;77;21179;-70
2022/07/10 07:04:40;;;;;;;4.40;2.70;;;;;;;21.28;99.11;98749.59;1832273;77;20942;-71
2022/07/10 07:07:07;;;;;;;4.22;2.47;;;;;;;21.15;98.22;98744.16;1854429;76;21435;-69
2022/07/10 07:09:35;;;;;;;13.22;2.60;;;;;;;21.11;100.00;98741.88;1821280;76;21029;-71
2022/07/10 07:12:03;;;;;;;6.40;3.33;;;;;;;21.24;100.00;98741.31;1836229;76;20950;-69
2022/07/10 07:14:30;;;;;;;7.30;2.70;;;;;;;21.29;100.00;98747.08;1835356;76;21233;-72
2022/07/10 07:17:00;;;;;;;3.15;2.22;;;;;;;21.39;98.93;98748.81;1860520;76;20889;-73
2022/07/10 07:19:31;;;;;;;3.77;2.45;;;;;;;21.33;97.49;98745.27;1826446;76;20914;-70
2022/07/10 07:24:44;;;;;;;7.95;4.78;;;;;;;22.40;94.86;98750.20;1849176;77;20921;-69
2022/07/10 07:27:12;;;;;;;42.85;26.45;;;;;;;22.55;87.53;98753.51;1845244;76;20914;-70
2022/07/10 07:29:39;;;;;;;26.05;4.60;;;;;;;23.20;82.22;98758.59;1845247;76;20867;-69
2022/07/10 07:32:08;;;;;;;62.60;5.50;;;;;;;23.22;76.09;98756.27;1820164;76;20898;-71
2022/07/10 07:34:35;;;;;;;5.50;3.90;;;;;;;23.05;79.03;98760.77;1844145;76;21021;-71
2022/07/10 07:37:03;;;;;;;4.53;1.72;;;;;;;22.96;77.68;98757.42;1836162;76;21085;-71
2022/07/10 07:39:32;;;;;;;3.92;1.72;;;;;;;22.71;71.33;98758.17;1852182;76;21277;-69
2022/07/10 07:42:00;;;;;;;5.83;1.87;;;;;;;22.54;73.76;98756.59;1842989;76;20871;-70
2022/07/10 07:44:27;;;;;;;9.47;1.83;;;;;;;22.66;71.21;98764.70;1850899;76;20870;-68
2022/07/10 07:46:54;;;;;;;5.57;1.63;;;;;;;23.29;68.12;98764.63;1848517;77;20914;-68
2022/07/10 07:49:22;;;;;;;3.25;1.80;;;;;;;23.85;65.75;98766.80;1858847;77;21416;-71
2022/07/10 07:51:50;;;;;;;3.93;1.87;;;;;;;23.78;61.83;98767.44;1836543;77;21215;-69
2022/07/10 07:54:16;;;;;;;;;;;;;;;23.71;61.95;98763.16;1838997;76;21353;-69
2022/07/10 07:56:43;;;;;;;3.12;1.32;;;;;;;23.72;66.98;98762.81;1808027;77;20248;-68
2022/07/10 07:59:10;;;;;;;2.33;1.82;;;;;;;23.86;59.62;98770.56;1841632;76;21523;-69
2022/07/10 08:01:37;;;;;;;6.58;2.27;;;;;;;23.92;61.86;98768.31;1842695;76;20855;-70
2022/07/10 08:04:04;;;;;;;3.72;1.50;;;;;;;23.91;57.57;98768.90;1846025;77;21205;-66
2022/07/10 08:06:32;;;;;;;4.25;1.07;;;;;;;23.58;57.19;98769.36;1816327;76;20843;-72
2022/07/10 08:08:59;;;;;;;5.85;1.42;;;;;;;23.14;60.33;98754.53;1858167;77;20906;-67
2022/07/10 08:11:26;;;;;;;3.85;2.02;;;;;;;23.30;62.26;98753.92;1842739;76;21396;-71
2022/07/10 08:13:55;;;;;;;2.75;1.05;;;;;;;23.83;59.56;98758.14;1840396;77;20867;-68
2022/07/10 08:16:22;;;;;;;4.05;1.00;;;;;;;24.03;54.64;98758.91;1850455;76;21314;-69
2022/07/10 08:18:50;;;;;;;4.42;1.40;;;;;;;24.00;59.02;98754.17;1816337;76;20871;-72
2022/07/10 08:21:17;;;;;;;5.20;1.17;;;;;;;23.96;56.94;98748.63;1850874;77;20893;-72
2022/07/10 08:23:43;;;;;;;3.37;0.97;;;;;;;23.71;54.29;98748.91;1834787;76;21131;-71
2022/07/10 08:26:10;;;;;;;2.25;1.10;;;;;;;23.61;55.73;98746.72;1836278;76;20945;-70
2022/07/10 08:28:37;;;;;;;6.22;1.17;;;;;;;23.63;55.80;98749.11;1851181;76;21902;-67
2022/07/10 08:31:05;;;;;;;1.50;1.00;;;;;;;23.99;58.20;98756.70;1853982;76;20949;-72
2022/07/10 08:33:32;;;;;;;1.42;1.00;;;;;;;24.62;50.69;98751.36;1849307;77;21364;-68
2022/07/10 08:36:00;;;;;;;1.90;1.00;;;;;;;24.69;49.21;98750.10;1830778;76;21037;-70
2022/07/10 08:38:27;;;;;;;3.55;0.88;;;;;;;24.79;48.51;98746.73;1832989;76;20938;-72
2022/07/10 08:40:58;;;;;;;3.17;1.20;;;;;;;24.81;50.09;98742.45;1849616;76;21237;-71
2022/07/10 08:43:25;;;;;;;3.17;1.20;;;;;;;25.06;49.30;98753.02;1827639;76;21483;-70
2022/07/10 08:45:53;;;;;;;;;;;;;;;25.44;49.21;98754.76;1852473;76;21446;-73
2022/07/10 08:48:23;;;;;;;3.15;0.95;;;;;;;25.15;49.00;98750.80;1823577;77;20143;-72
2022/07/10 08:50:54;;;;;;;2.52;1.00;;;;;;;25.53;46.46;98753.68;1857339;77;20835;-70
2022/07/10 08:53:30;;;;;;;3.47;0.70;;;;;;;25.61;47.91;98759.49;1819586;76;21246;-71
2022/07/10 08:56:00;;;;;;;3.65;1.15;;;;;;;25.69;45.88;98751.53;1813033;76;21047;-71
2022/07/10 08:58:27;;;;;;;3.52;1.20;;;;;;;24.80;47.97;98753.82;1815417;76;20925;-68
2022/07/10 09:00:54;;;;;;;3.40;1.02;;;;;;;24.05;52.03;98747.80;1849451;76;21440;-70
2022/07/10 09:03:21;;;;;;;5.17;2.30;;;;;;;23.82;53.09;98745.03;1821786;76;20954;-69
2022/07/10 09:05:51;;;;;;;4.70;3.30;;;;;;;23.29;52.67;98740.58;1855338;77;21381;-71
2022/07/10 09:08:28;;;;;;;4.72;3.55;;;;;;;22.53;56.02;98738.60;1844250;77;20905;-68
2022/07/10 09:11:17;;;;;;;6.60;2.80;;;;;;;22.08;60.68;98735.69;1854183;77;21002;-69
2022/07/10 09:13:54;;;;;;;3.20;1.45;;;;;;;21.71;65.81;98736.64;1832045;76;20934;-74
2022/07/10 09:16:32;;;;;;;1.72;1.50;;;;;;;21.40;71.94;98738.67;1860734;76;20945;-73
2022/07/10 09:19:25;;;;;;;3.22;2.40;;;;;;;21.17;75.16;98737.01;1855878;76;21875;-71
2022/07/10 09:22:05;;;;;;;4.97;2.45;;;;;;;21.07;74.07;98732.00;1863568;77;20823;-71
2022/07/10 09:24:47;;;;;;;8.30;2.50;;;;;;;21.09;76.71;98733.27;1842693;76;21029;-72
2022/07/10 09:27:15;;;;;;;3.22;1.90;;;;;;;20.95;75.14;98735.56;1827911;76;21010;-70
2022/07/10 09:29:57;;;;;;;4.40;3.12;;;;;;;20.95;72.78;98734.20;1843840;76;20962;-72
2022/07/10 09:32:26;;;;;;;3.85;2.52;;;;;;;20.90;74.84;98733.06;1844120;76;21231;-71
2022/07/10 09:37:27;;;;;;;4.67;2.92;;;;;;;21.00;76.10;98727.72;1793202;76;20965;-70
2022/07/10 09:40:04;;;;;;;3.47;1.90;;;;;;;21.21;80.96;98729.70;1823299;76;21554;-70
2022/07/10 09:42:38;;;;;;;6.35;1.95;;;;;;;21.50;73.23;98729.21;1821647;76;20996;-69
2022/07/10 09:45:16;;;;;;;7.40;1.92;;;;;;;21.51;68.11;98727.51;1827080;76;21293;-70
2022/07/10 09:47:56;;;;;;;4.53;1.77;;;;;;;21.59;69.33;98730.66;1858686;77;20953;-69
2022/07/10 09:50:35;;;;;;;1.80;1.52;;;;;;;21.62;65.44;98724.49;1858588;77;21581;-70
2022/07/10 09:53:07;;;;;;;5.65;1.65;;;;;;;21.60;63.09;98721.89;1823913;76;20876;-70
2022/07/10 09:55:35;;;;;;;4.22;1.67;;;;;;;21.67;69.48;98731.64;1826737;76;21020;-69
2022/07/10 09:58:05;;;;;;;2.50;1.40;;;;;;;21.72;65.56;98725.94;1821187;76;21835;-69
2022/07/10 10:00:34;;;;;;;3.45;1.20;;;;;;;21.95;65.28;98729.47;1845892;77;20919;-69
2022/07/10 10:03:03;;;;;;;6.92;2.70;;;;;;;22.25;64.87;98725.23;1837035;76;21480;-70
2022/07/10 10:05:47;;;;;;;4.95;1.50;;;;;;;22.45;61.38;98727.48;1852254;76;20978;-69
2022/07/10 10:08:56;;;;;;;4.08;2.05;;;;;;;22.77;60.04;98731.57;1840899;77;21357;-71
2022/07/10 10:11:26;;;;;;;4.67;1.60;;;;;;;23.15;57.65;98729.31;1814936;76;21253;-69
2022/07/10 10:13:53;;;;;;;7.12;1.72;;;;;;;23.29;55.96;98726.89;1837638;76;20903;-70
2022/07/10 10:16:20;;;;;;;2.70;1.40;;;;;;;23.82;55.07;98726.43;1852554;76;20867;-70
2022/07/10 10:21:36;;;;;;;2.50;1.32;;;;;;;23.77;49.77;98728.09;1863453;77;20966;-68
2022/07/10 10:24:06;;;;;;;7.33;1.27;;;;;;;23.59;50.87;98731.25;1836499;77;21460;-67
2022/07/10 10:26:33;;;;;;;1.87;1.00;;;;;;;23.48;51.67;98728.86;1863093;77;21131;-68
2022/07/10 10:29:02;;;;;;;7.25;1.17;;;;;;;23.35;52.39;98720.55;1830238;76;21558;-68
2022/07/10 10:31:29;;;;;;;2.12;1.05;;;;;;;23.43;52.69;98714.09;1814923;77;20929;-69
2022/07/10 10:33:57;;;;;;;1.17;1.07;;;;;;;23.39;50.15;98716.73;1861850;77;20990;-68
2022/07/10 10:36:44;;;;;;;4.28;1.25;;;;;;;23.24;51.27;98714.27;1810857;76;21073;-69
2022/07/10 10:39:13;;;;;;;3.47;1.17;;;;;;;23.30;53.32;98706.01;1829795;76;20955;-69
2022/07/10 10:41:53;;;;;;;3.55;1.87;;;;;;;23.50;52.91;98717.76;1791407;77;20933;-70
2022/07/10 10:44:26;;;;;;;1.95;1.00;;;;;;;23.60;51.01;98716.39;1829371;76;20991;-69
2022/07/10 10:47:02;;;;;;;5.67;1.50;;;;;;;23.84;50.88;98713.16;1838289;76;21021;-70
2022/07/10 10:49:51;;;;;;;6.00;1.55;;;;;;;23.95;50.05;98718.25;1855252;76;21202;-69
2022/07/10 10:52:17;;;;;;;3.40;1.45;;;;;;;23.64;49.59;98710.97;1834577;76;20905;-70
2022/07/10 10:55:07;;;;;;;1.52;1.30;;;;;;;23.41;52.65;98707.59;1829882;76;21088;-70
2022/07/10 10:57:43;;;;;;;2.83;0.93;;;;;;;23.40;51.03;98698.38;1843175;76;21068;-71
2022/07/10 11:00:09;;;;;;;5.97;1.60;;;;;;;23.51;50.19;98702.11;1848726;76;21467;-70
2022/07/10 11:02:41;;;;;;;3.67;1.40;;;;;;;23.45;52.66;98701.61;1857374;77;21176;-70
2022/07/10 11:05:20;;;;;;;9.23;1.77;;;;;;;23.23;51.35;98700.96;1855950;76;20830;-69
2022/07/10 11:08:01;;;;;;;7.58;2.42;;;;;;;23.29;51.90;98705.77;1820938;76;21402;-70
2022/07/10 11:10:33;;;;;;;4.37;1.98;;;;;;;23.26;52.34;98692.81;1852617;76;20961;-71
2022/07/10 11:13:15;;;;;;;5.53;2.55;;;;;;;23.19;51.83;98694.03;1836422;76;20895;-69
2022/07/10 11:15:52;;;;;;;4.90;1.92;;;;;;;23.25;54.15;98691.23;1821472;76;21218;-70
2022/07/10 11:18:25;;;;;;;2.70;1.50;;;;;;;23.21;52.15;98692.31;1821880;76;20874;-70
2022/07/10 11:20:56;;;;;;;2.58;1.50;;;;;;;23.19;52.42;98691.29;1857567;76;20909;-70
2022/07/10 11:23:59;;;;;;;3.65;1.52;;;;;;;23.05;50.65;98688.24;1852391;76;21018;-69
2022/07/10 11:26:41;;;;;;;1.77;1.25;;;;;;;23.11;51.33;98682.14;1818576;76;20906;-70
2022/07/10 11:29:08;;;;;;;6.75;3.17;;;;;;;23.07;51.84;98685.36;1859611;77;21243;-70
2022/07/10 11:31:40;;;;;;;2.87;1.90;;;;;;;22.99;52.68;98683.63;1837245;76;20969;-68
2022/07/10 11:34:04;;;;;;;2.95;1.70;;;;;;;22.73;50.92;98673.82;1824001;76;20912;-68
2022/07/10 11:36:32;;;;;;;4.78;1.87;;;;;;;22.75;51.35;98673.69;1842238;76;21028;-70
2022/07/10 11:39:05;;;;;;;2.87;1.35;;;;;;;22.93;52.48;98676.84;1854415;76;20897;-69
2022/07/10 11:41:32;;;;;;;3.83;1.45;;;;;;;23.10;53.33;98673.72;1842098;76;21209;-69
2022/07/10 11:44:02;;;;;;;2.98;1.50;;;;;;;23.11;51.59;98667.66;1844042;77;20870;-69
2022/07/10 11:46:34;;;;;;;4.60;1.30;;;;;;;23.35;50.57;98665.23;1834647;76;20895;-70
2022/07/10 11:49:05;;;;;;;2.62;1.60;;;;;;;23.43;51.71;98662.84;1844331;76;20859;-70
2022/07/10 11:51:36;;;;;;;2.35;1.50;;;;;;;23.71;51.04;98669.46;1829580;76;20973;-67
2022/07/10 11:54:08;;;;;;;2.40;1.47;;;;;;;24.03;49.54;98666.52;1829463;76;21546;-71
2022/07/10 11:56:38;;;;;;;4.22;1.40;;;;;;;23.96;49.10;98665.83;1862438;77;20902;-70
2022/07/10 11:59:08;;;;;;;6.08;1.20;;;;;;;23.97;49.88;98661.13;1851346;76;20906;-70
2022/07/10 12:01:50;;;;;;;5.80;1.30;;;;;;;23.96;48.47;98667.20;1842630;77;21131;-69
2022/07/10 12:04:25;;;;;;;3.75;1.35;;;;;;;23.98;48.62;98664.66;1838851;76;20855;-70
2022/07/10 12:06:49;;;;;;;6.03;1.65;;;;;;;23.77;47.60;98660.97;1843459;77;21269;-70
2022/07/10 12:09:19;;;;;;;3.80;1.60;;;;;;;23.65;48.83;98667.37;1846679;76;20966;-71
2022/07/10 12:12:04;;;;;;;6.87;3.00;;;;;;;23.74;48.86;98661.91;1852121;76;21539;-71
2022/07/10 12:14:31;;;;;;;6.40;1.90;;;;;;;23.84;50.19;98667.37;1850824;76;21024;-70
2022/07/10 12:16:59;;;;;;;5.10;3.20;;;;;;;23.90;47.32;98665.90;1843851;76;21084;-70
2022/07/10 12:19:30;;;;;;;;;;;;;;;23.75;47.94;98666.22;1863179;76;21810;-69
2022/07/10 12:21:59;;;;;;;5.97;1.80;;;;;;;23.75;50.15;98667.59;1860459;77;20475;-70